sensor_id;sensor_type;location;lat;lon;timestamp;P1;durP1;ratioP1;P2;durP2;ratioP2
46334;SDS011;32051;48.882;9.210;2023-11-21T00:00:09;8.27;;;1.50;;
46334;SDS011;32051;48.882;9.210;2023-11-21T00:02:40;3.97;;;1.67;;
46334;SDS011;32051;48.882;9.210;2023-11-21T00:05:07;18.52;;;1.75;;
46334;SDS011;32051;48.882;9.210;2023-11-21T00:07:35;2.47;;;1.15;;
46334;SDS011;32051;48.882;9.210;2023-11-21T00:10:01;2.85;;;1.58;;
46334;SDS011;32051;48.882;9.210;2023-11-21T00:12:28;2.70;;;1.05;;
46334;SDS011;32051;48.882;9.210;2023-11-21T00:14:54;6.95;;;1.38;;
46334;SDS011;32051;48.882;9.210;2023-11-21T00:17:21;7.45;;;1.50;;
46334;SDS011;32051;48.882;9.210;2023-11-21T00:19:47;3.78;;;1.73;;
46334;SDS011;32051;48.882;9.210;2023-11-21T00:22:13;8.43;;;2.03;;
46334;SDS011;32051;48.882;9.210;2023-11-21T00:24:39;2.05;;;1.40;;
46334;SDS011;32051;48.882;9.210;2023-11-21T00:27:05;2.53;;;2.00;;
46334;SDS011;32051;48.882;9.210;2023-11-21T00:29:31;6.57;;;1.55;;
46334;SDS011;32051;48.882;9.210;2023-11-21T00:31:57;3.35;;;1.70;;
46334;SDS011;32051;48.882;9.210;2023-11-21T00:34:24;3.97;;;1.40;;
46334;SDS011;32051;48.882;9.210;2023-11-21T00:36:50;5.53;;;1.75;;
46334;SDS011;32051;48.882;9.210;2023-11-21T00:39:16;6.03;;;1.95;;
46334;SDS011;32051;48.882;9.210;2023-11-21T00:41:42;6.60;;;2.15;;
46334;SDS011;32051;48.882;9.210;2023-11-21T00:44:10;4.88;;;1.42;;
46334;SDS011;32051;48.882;9.210;2023-11-21T00:46:36;6.80;;;1.67;;
46334;SDS011;32051;48.882;9.210;2023-11-21T00:49:02;3.13;;;1.17;;
46334;SDS011;32051;48.882;9.210;2023-11-21T00:51:29;6.82;;;1.65;;
46334;SDS011;32051;48.882;9.210;2023-11-21T00:53:55;8.10;;;1.67;;
46334;SDS011;32051;48.882;9.210;2023-11-21T00:56:22;2.63;;;1.27;;
46334;SDS011;32051;48.882;9.210;2023-11-21T00:58:49;3.33;;;1.15;;
46334;SDS011;32051;48.882;9.210;2023-11-21T01:01:17;3.08;;;1.17;;
46334;SDS011;32051;48.882;9.210;2023-11-21T01:03:43;2.20;;;1.05;;
46334;SDS011;32051;48.882;9.210;2023-11-21T01:06:11;5.45;;;1.15;;
46334;SDS011;32051;48.882;9.210;2023-11-21T01:08:38;4.63;;;1.23;;
46334;SDS011;32051;48.882;9.210;2023-11-21T01:11:04;3.60;;;2.10;;
46334;SDS011;32051;48.882;9.210;2023-11-21T01:13:32;6.15;;;1.67;;
46334;SDS011;32051;48.882;9.210;2023-11-21T01:15:58;6.68;;;1.75;;
46334;SDS011;32051;48.882;9.210;2023-11-21T01:18:25;4.03;;;1.13;;
46334;SDS011;32051;48.882;9.210;2023-11-21T01:20:51;9.05;;;2.53;;
46334;SDS011;32051;48.882;9.210;2023-11-21T01:23:18;5.60;;;1.88;;
46334;SDS011;32051;48.882;9.210;2023-11-21T01:25:45;5.18;;;1.98;;
46334;SDS011;32051;48.882;9.210;2023-11-21T01:28:11;3.50;;;1.33;;
46334;SDS011;32051;48.882;9.210;2023-11-21T01:30:38;3.72;;;1.48;;
46334;SDS011;32051;48.882;9.210;2023-11-21T01:33:04;2.45;;;1.10;;
46334;SDS011;32051;48.882;9.210;2023-11-21T01:35:30;12.02;;;1.25;;
46334;SDS011;32051;48.882;9.210;2023-11-21T01:37:56;6.82;;;1.52;;
46334;SDS011;32051;48.882;9.210;2023-11-21T01:40:22;2.45;;;1.17;;
46334;SDS011;32051;48.882;9.210;2023-11-21T01:42:52;4.75;;;2.00;;
46334;SDS011;32051;48.882;9.210;2023-11-21T01:45:19;5.13;;;0.90;;
46334;SDS011;32051;48.882;9.210;2023-11-21T01:47:45;2.85;;;1.67;;
46334;SDS011;32051;48.882;9.210;2023-11-21T01:50:15;5.10;;;1.23;;
46334;SDS011;32051;48.882;9.210;2023-11-21T01:52:42;4.35;;;1.45;;
46334;SDS011;32051;48.882;9.210;2023-11-21T01:55:09;2.97;;;0.93;;
46334;SDS011;32051;48.882;9.210;2023-11-21T01:57:37;5.43;;;1.33;;
46334;SDS011;32051;48.882;9.210;2023-11-21T02:00:04;4.22;;;0.88;;
46334;SDS011;32051;48.882;9.210;2023-11-21T02:02:47;5.15;;;2.15;;
46334;SDS011;32051;48.882;9.210;2023-11-21T02:05:17;6.07;;;1.23;;
46334;SDS011;32051;48.882;9.210;2023-11-21T02:07:44;5.05;;;1.48;;
46334;SDS011;32051;48.882;9.210;2023-11-21T02:10:12;4.07;;;1.23;;
46334;SDS011;32051;48.882;9.210;2023-11-21T02:12:42;2.60;;;1.13;;
46334;SDS011;32051;48.882;9.210;2023-11-21T02:15:12;1.33;;;0.98;;
46334;SDS011;32051;48.882;9.210;2023-11-21T02:17:51;4.53;;;1.02;;
46334;SDS011;32051;48.882;9.210;2023-11-21T02:20:19;1.20;;;0.80;;
46334;SDS011;32051;48.882;9.210;2023-11-21T02:22:55;4.88;;;0.90;;
46334;SDS011;32051;48.882;9.210;2023-11-21T02:25:31;2.50;;;0.82;;
46334;SDS011;32051;48.882;9.210;2023-11-21T02:27:58;0.80;;;0.80;;
46334;SDS011;32051;48.882;9.210;2023-11-21T02:30:25;9.10;;;1.23;;
46334;SDS011;32051;48.882;9.210;2023-11-21T02:32:52;2.97;;;0.90;;
46334;SDS011;32051;48.882;9.210;2023-11-21T02:35:19;3.28;;;1.17;;
46334;SDS011;32051;48.882;9.210;2023-11-21T02:37:49;1.45;;;0.95;;
46334;SDS011;32051;48.882;9.210;2023-11-21T02:40:15;3.72;;;0.98;;
46334;SDS011;32051;48.882;9.210;2023-11-21T02:42:49;2.15;;;0.82;;
46334;SDS011;32051;48.882;9.210;2023-11-21T02:45:19;5.65;;;1.38;;
46334;SDS011;32051;48.882;9.210;2023-11-21T02:47:46;2.47;;;1.00;;
46334;SDS011;32051;48.882;9.210;2023-11-21T02:50:13;2.53;;;0.93;;
46334;SDS011;32051;48.882;9.210;2023-11-21T02:52:39;2.50;;;1.55;;
46334;SDS011;32051;48.882;9.210;2023-11-21T02:55:05;4.57;;;1.15;;
46334;SDS011;32051;48.882;9.210;2023-11-21T02:57:32;4.93;;;1.33;;
46334;SDS011;32051;48.882;9.210;2023-11-21T02:59:58;3.28;;;1.27;;
46334;SDS011;32051;48.882;9.210;2023-11-21T03:02:25;3.60;;;1.48;;
46334;SDS011;32051;48.882;9.210;2023-11-21T03:04:51;2.67;;;0.93;;
46334;SDS011;32051;48.882;9.210;2023-11-21T03:07:18;3.60;;;1.65;;
46334;SDS011;32051;48.882;9.210;2023-11-21T03:09:44;3.05;;;1.15;;
46334;SDS011;32051;48.882;9.210;2023-11-21T03:12:11;5.82;;;1.05;;
46334;SDS011;32051;48.882;9.210;2023-11-21T03:14:37;3.75;;;1.30;;
46334;SDS011;32051;48.882;9.210;2023-11-21T03:17:03;1.88;;;0.73;;
46334;SDS011;32051;48.882;9.210;2023-11-21T03:19:30;3.17;;;0.85;;
46334;SDS011;32051;48.882;9.210;2023-11-21T03:21:56;3.72;;;1.00;;
46334;SDS011;32051;48.882;9.210;2023-11-21T03:24:22;1.35;;;0.73;;
46334;SDS011;32051;48.882;9.210;2023-11-21T03:26:48;4.00;;;0.80;;
46334;SDS011;32051;48.882;9.210;2023-11-21T03:29:16;5.00;;;1.10;;
46334;SDS011;32051;48.882;9.210;2023-11-21T03:31:43;1.48;;;0.90;;
46334;SDS011;32051;48.882;9.210;2023-11-21T03:34:25;4.03;;;0.93;;
46334;SDS011;32051;48.882;9.210;2023-11-21T03:36:51;5.57;;;1.08;;
46334;SDS011;32051;48.882;9.210;2023-11-21T03:39:19;1.58;;;0.90;;
46334;SDS011;32051;48.882;9.210;2023-11-21T03:41:45;5.30;;;0.80;;
46334;SDS011;32051;48.882;9.210;2023-11-21T03:44:11;2.95;;;1.13;;
46334;SDS011;32051;48.882;9.210;2023-11-21T03:46:37;4.32;;;0.80;;
46334;SDS011;32051;48.882;9.210;2023-11-21T03:49:03;3.10;;;0.70;;
46334;SDS011;32051;48.882;9.210;2023-11-21T03:51:29;1.42;;;0.73;;
46334;SDS011;32051;48.882;9.210;2023-11-21T03:53:55;4.70;;;1.05;;
46334;SDS011;32051;48.882;9.210;2023-11-21T03:56:21;1.92;;;0.88;;
46334;SDS011;32051;48.882;9.210;2023-11-21T03:58:48;0.85;;;0.70;;
46334;SDS011;32051;48.882;9.210;2023-11-21T04:01:21;2.47;;;0.98;;
46334;SDS011;32051;48.882;9.210;2023-11-21T04:03:48;0.80;;;0.70;;
46334;SDS011;32051;48.882;9.210;2023-11-21T04:06:14;0.60;;;0.60;;
46334;SDS011;32051;48.882;9.210;2023-11-21T04:08:40;8.50;;;1.33;;
46334;SDS011;32051;48.882;9.210;2023-11-21T04:11:06;1.58;;;0.60;;
46334;SDS011;32051;48.882;9.210;2023-11-21T04:13:32;5.35;;;0.80;;
46334;SDS011;32051;48.882;9.210;2023-11-21T04:15:58;4.13;;;0.93;;
46334;SDS011;32051;48.882;9.210;2023-11-21T04:18:24;6.22;;;1.00;;
46334;SDS011;32051;48.882;9.210;2023-11-21T04:20:50;1.92;;;1.02;;
46334;SDS011;32051;48.882;9.210;2023-11-21T04:23:16;1.27;;;0.70;;
46334;SDS011;32051;48.882;9.210;2023-11-21T04:25:43;1.00;;;0.57;;
46334;SDS011;32051;48.882;9.210;2023-11-21T04:28:09;2.35;;;0.90;;
46334;SDS011;32051;48.882;9.210;2023-11-21T04:30:35;3.25;;;1.23;;
46334;SDS011;32051;48.882;9.210;2023-11-21T04:33:01;5.57;;;1.23;;
46334;SDS011;32051;48.882;9.210;2023-11-21T04:35:28;2.35;;;1.25;;
46334;SDS011;32051;48.882;9.210;2023-11-21T04:37:54;2.60;;;0.68;;
46334;SDS011;32051;48.882;9.210;2023-11-21T04:40:20;2.58;;;1.40;;
46334;SDS011;32051;48.882;9.210;2023-11-21T04:42:46;3.72;;;1.08;;
46334;SDS011;32051;48.882;9.210;2023-11-21T04:45:12;13.55;;;2.25;;
46334;SDS011;32051;48.882;9.210;2023-11-21T04:47:38;2.47;;;0.70;;
46334;SDS011;32051;48.882;9.210;2023-11-21T04:50:04;2.28;;;0.60;;
46334;SDS011;32051;48.882;9.210;2023-11-21T04:52:31;4.63;;;1.35;;
46334;SDS011;32051;48.882;9.210;2023-11-21T04:54:58;0.57;;;0.57;;
46334;SDS011;32051;48.882;9.210;2023-11-21T04:57:26;3.40;;;0.82;;
46334;SDS011;32051;48.882;9.210;2023-11-21T04:59:53;3.60;;;1.23;;
46334;SDS011;32051;48.882;9.210;2023-11-21T05:02:19;1.65;;;0.90;;
46334;SDS011;32051;48.882;9.210;2023-11-21T05:04:46;2.58;;;0.90;;
46334;SDS011;32051;48.882;9.210;2023-11-21T05:07:13;2.40;;;1.05;;
46334;SDS011;32051;48.882;9.210;2023-11-21T05:09:42;0.77;;;0.75;;
46334;SDS011;32051;48.882;9.210;2023-11-21T05:12:12;1.08;;;0.98;;
46334;SDS011;32051;48.882;9.210;2023-11-21T05:14:39;3.78;;;1.25;;
46334;SDS011;32051;48.882;9.210;2023-11-21T05:17:06;9.10;;;2.13;;
46334;SDS011;32051;48.882;9.210;2023-11-21T05:19:33;2.38;;;1.02;;
46334;SDS011;32051;48.882;9.210;2023-11-21T05:22:00;2.60;;;1.17;;
46334;SDS011;32051;48.882;9.210;2023-11-21T05:24:27;1.50;;;0.73;;
46334;SDS011;32051;48.882;9.210;2023-11-21T05:26:53;1.73;;;1.63;;
46334;SDS011;32051;48.882;9.210;2023-11-21T05:29:19;2.97;;;1.17;;
46334;SDS011;32051;48.882;9.210;2023-11-21T05:31:45;4.60;;;1.02;;
46334;SDS011;32051;48.882;9.210;2023-11-21T05:34:11;2.95;;;0.95;;
46334;SDS011;32051;48.882;9.210;2023-11-21T05:36:37;1.13;;;1.10;;
46334;SDS011;32051;48.882;9.210;2023-11-21T05:39:04;6.22;;;1.15;;
46334;SDS011;32051;48.882;9.210;2023-11-21T05:41:30;1.23;;;1.00;;
46334;SDS011;32051;48.882;9.210;2023-11-21T05:43:56;0.70;;;0.70;;
46334;SDS011;32051;48.882;9.210;2023-11-21T05:46:22;2.28;;;1.55;;
46334;SDS011;32051;48.882;9.210;2023-11-21T05:48:48;1.33;;;0.82;;
46334;SDS011;32051;48.882;9.210;2023-11-21T05:51:15;2.78;;;0.90;;
46334;SDS011;32051;48.882;9.210;2023-11-21T05:53:41;0.75;;;0.75;;
46334;SDS011;32051;48.882;9.210;2023-11-21T05:56:07;3.35;;;1.23;;
46334;SDS011;32051;48.882;9.210;2023-11-21T05:58:33;1.52;;;0.90;;
46334;SDS011;32051;48.882;9.210;2023-11-21T06:00:59;1.48;;;0.90;;
46334;SDS011;32051;48.882;9.210;2023-11-21T06:03:25;2.03;;;1.17;;
46334;SDS011;32051;48.882;9.210;2023-11-21T06:05:51;3.72;;;1.33;;
46334;SDS011;32051;48.882;9.210;2023-11-21T06:08:17;1.73;;;1.13;;
46334;SDS011;32051;48.882;9.210;2023-11-21T06:10:43;2.15;;;1.10;;
46334;SDS011;32051;48.882;9.210;2023-11-21T06:13:10;2.25;;;1.70;;
46334;SDS011;32051;48.882;9.210;2023-11-21T06:15:36;3.42;;;1.15;;
46334;SDS011;32051;48.882;9.210;2023-11-21T06:18:02;6.38;;;1.10;;
46334;SDS011;32051;48.882;9.210;2023-11-21T06:20:28;3.30;;;1.48;;
46334;SDS011;32051;48.882;9.210;2023-11-21T06:22:54;5.30;;;1.42;;
46334;SDS011;32051;48.882;9.210;2023-11-21T06:25:20;1.38;;;1.20;;
46334;SDS011;32051;48.882;9.210;2023-11-21T06:27:47;5.45;;;1.48;;
46334;SDS011;32051;48.882;9.210;2023-11-21T06:30:13;1.85;;;1.60;;
46334;SDS011;32051;48.882;9.210;2023-11-21T06:32:40;3.17;;;1.40;;
46334;SDS011;32051;48.882;9.210;2023-11-21T06:35:07;3.75;;;1.67;;
46334;SDS011;32051;48.882;9.210;2023-11-21T06:37:36;4.03;;;1.73;;
46334;SDS011;32051;48.882;9.210;2023-11-21T06:40:02;7.72;;;1.30;;
46334;SDS011;32051;48.882;9.210;2023-11-21T06:42:29;2.92;;;1.50;;
46334;SDS011;32051;48.882;9.210;2023-11-21T06:44:56;3.75;;;2.45;;
46334;SDS011;32051;48.882;9.210;2023-11-21T06:47:22;2.65;;;1.77;;
46334;SDS011;32051;48.882;9.210;2023-11-21T06:49:51;3.92;;;1.90;;
46334;SDS011;32051;48.882;9.210;2023-11-21T06:52:20;2.28;;;1.48;;
46334;SDS011;32051;48.882;9.210;2023-11-21T06:54:47;8.15;;;2.17;;
46334;SDS011;32051;48.882;9.210;2023-11-21T06:57:14;4.03;;;1.90;;
46334;SDS011;32051;48.882;9.210;2023-11-21T06:59:40;2.03;;;1.90;;
46334;SDS011;32051;48.882;9.210;2023-11-21T07:02:07;6.82;;;2.05;;
46334;SDS011;32051;48.882;9.210;2023-11-21T07:04:33;11.27;;;2.55;;
46334;SDS011;32051;48.882;9.210;2023-11-21T07:06:59;3.75;;;1.50;;
46334;SDS011;32051;48.882;9.210;2023-11-21T07:09:25;3.30;;;1.27;;
46334;SDS011;32051;48.882;9.210;2023-11-21T07:11:52;4.00;;;1.15;;
46334;SDS011;32051;48.882;9.210;2023-11-21T07:14:19;8.18;;;1.77;;
46334;SDS011;32051;48.882;9.210;2023-11-21T07:16:45;1.38;;;1.27;;
46334;SDS011;32051;48.882;9.210;2023-11-21T07:19:11;2.65;;;1.58;;
46334;SDS011;32051;48.882;9.210;2023-11-21T07:21:38;4.22;;;1.75;;
46334;SDS011;32051;48.882;9.210;2023-11-21T07:24:05;2.00;;;1.90;;
46334;SDS011;32051;48.882;9.210;2023-11-21T07:26:31;10.45;;;1.23;;
46334;SDS011;32051;48.882;9.210;2023-11-21T07:28:58;4.60;;;1.70;;
46334;SDS011;32051;48.882;9.210;2023-11-21T07:31:24;6.50;;;2.20;;
46334;SDS011;32051;48.882;9.210;2023-11-21T07:33:50;6.90;;;2.40;;
46334;SDS011;32051;48.882;9.210;2023-11-21T07:36:17;8.85;;;3.17;;
46334;SDS011;32051;48.882;9.210;2023-11-21T07:38:43;3.10;;;2.75;;
46334;SDS011;32051;48.882;9.210;2023-11-21T07:41:10;3.53;;;2.60;;
46334;SDS011;32051;48.882;9.210;2023-11-21T07:43:38;5.63;;;2.47;;
46334;SDS011;32051;48.882;9.210;2023-11-21T07:46:05;3.00;;;2.30;;
46334;SDS011;32051;48.882;9.210;2023-11-21T07:48:31;5.32;;;2.55;;
46334;SDS011;32051;48.882;9.210;2023-11-21T07:50:57;2.88;;;2.47;;
46334;SDS011;32051;48.882;9.210;2023-11-21T07:53:24;4.35;;;2.05;;
46334;SDS011;32051;48.882;9.210;2023-11-21T07:55:51;2.53;;;2.05;;
46334;SDS011;32051;48.882;9.210;2023-11-21T07:58:17;2.88;;;2.03;;
46334;SDS011;32051;48.882;9.210;2023-11-21T08:00:43;2.13;;;1.95;;
46334;SDS011;32051;48.882;9.210;2023-11-21T08:03:09;2.15;;;1.70;;
46334;SDS011;32051;48.882;9.210;2023-11-21T08:05:36;3.08;;;1.48;;
46334;SDS011;32051;48.882;9.210;2023-11-21T08:08:02;2.13;;;2.00;;
46334;SDS011;32051;48.882;9.210;2023-11-21T08:10:29;4.93;;;1.55;;
46334;SDS011;32051;48.882;9.210;2023-11-21T08:12:55;2.85;;;1.33;;
46334;SDS011;32051;48.882;9.210;2023-11-21T08:15:21;1.17;;;1.10;;
46334;SDS011;32051;48.882;9.210;2023-11-21T08:17:47;3.25;;;1.20;;
46334;SDS011;32051;48.882;9.210;2023-11-21T08:20:13;2.05;;;1.17;;
46334;SDS011;32051;48.882;9.210;2023-11-21T08:22:46;1.40;;;1.30;;
46334;SDS011;32051;48.882;9.210;2023-11-21T08:25:13;1.73;;;0.98;;
46334;SDS011;32051;48.882;9.210;2023-11-21T08:27:39;1.45;;;1.35;;
46334;SDS011;32051;48.882;9.210;2023-11-21T08:30:05;2.72;;;1.60;;
46334;SDS011;32051;48.882;9.210;2023-11-21T08:32:32;3.80;;;1.50;;
46334;SDS011;32051;48.882;9.210;2023-11-21T08:34:59;1.50;;;1.27;;
46334;SDS011;32051;48.882;9.210;2023-11-21T08:37:25;1.58;;;0.80;;
46334;SDS011;32051;48.882;9.210;2023-11-21T08:39:57;2.20;;;1.35;;
46334;SDS011;32051;48.882;9.210;2023-11-21T08:42:27;3.00;;;1.03;;
46334;SDS011;32051;48.882;9.210;2023-11-21T08:44:55;2.33;;;1.63;;
46334;SDS011;32051;48.882;9.210;2023-11-21T08:47:24;1.25;;;0.90;;
46334;SDS011;32051;48.882;9.210;2023-11-21T08:49:51;2.95;;;1.10;;
46334;SDS011;32051;48.882;9.210;2023-11-21T08:52:18;3.00;;;1.17;;
46334;SDS011;32051;48.882;9.210;2023-11-21T08:54:48;0.77;;;0.77;;
46334;SDS011;32051;48.882;9.210;2023-11-21T08:57:21;1.45;;;0.98;;
46334;SDS011;32051;48.882;9.210;2023-11-21T08:59:47;1.00;;;0.90;;
46334;SDS011;32051;48.882;9.210;2023-11-21T09:02:13;1.83;;;0.68;;
46334;SDS011;32051;48.882;9.210;2023-11-21T09:04:39;1.00;;;1.00;;
46334;SDS011;32051;48.882;9.210;2023-11-21T09:07:05;0.75;;;0.75;;
46334;SDS011;32051;48.882;9.210;2023-11-21T09:09:31;0.80;;;0.80;;
46334;SDS011;32051;48.882;9.210;2023-11-21T09:11:57;1.02;;;1.02;;
46334;SDS011;32051;48.882;9.210;2023-11-21T09:14:25;0.57;;;0.57;;
46334;SDS011;32051;48.882;9.210;2023-11-21T09:16:51;0.93;;;0.93;;
46334;SDS011;32051;48.882;9.210;2023-11-21T09:19:17;5.75;;;0.82;;
46334;SDS011;32051;48.882;9.210;2023-11-21T09:21:44;1.27;;;0.60;;
46334;SDS011;32051;48.882;9.210;2023-11-21T09:24:10;0.73;;;0.73;;
46334;SDS011;32051;48.882;9.210;2023-11-21T09:26:36;1.08;;;1.08;;
46334;SDS011;32051;48.882;9.210;2023-11-21T09:29:02;0.57;;;0.57;;
46334;SDS011;32051;48.882;9.210;2023-11-21T09:31:28;2.58;;;1.10;;
46334;SDS011;32051;48.882;9.210;2023-11-21T09:33:56;0.70;;;0.68;;
46334;SDS011;32051;48.882;9.210;2023-11-21T09:36:22;1.52;;;0.70;;
46334;SDS011;32051;48.882;9.210;2023-11-21T09:38:52;0.85;;;0.65;;
46334;SDS011;32051;48.882;9.210;2023-11-21T09:41:26;3.65;;;0.93;;
46334;SDS011;32051;48.882;9.210;2023-11-21T09:44:00;4.18;;;0.90;;
46334;SDS011;32051;48.882;9.210;2023-11-21T09:46:28;1.40;;;0.80;;
46334;SDS011;32051;48.882;9.210;2023-11-21T09:48:55;1.00;;;0.98;;
46334;SDS011;32051;48.882;9.210;2023-11-21T09:51:22;0.40;;;0.40;;
46334;SDS011;32051;48.882;9.210;2023-11-21T09:53:50;2.05;;;0.80;;
46334;SDS011;32051;48.882;9.210;2023-11-21T09:56:19;0.90;;;0.90;;
46334;SDS011;32051;48.882;9.210;2023-11-21T09:58:50;0.60;;;0.60;;
46334;SDS011;32051;48.882;9.210;2023-11-21T10:01:16;1.05;;;0.50;;
46334;SDS011;32051;48.882;9.210;2023-11-21T10:03:43;0.60;;;0.60;;
46334;SDS011;32051;48.882;9.210;2023-11-21T10:06:09;0.90;;;0.90;;
46334;SDS011;32051;48.882;9.210;2023-11-21T10:08:39;0.63;;;0.60;;
46334;SDS011;32051;48.882;9.210;2023-11-21T10:11:05;1.20;;;0.75;;
46334;SDS011;32051;48.882;9.210;2023-11-21T10:13:32;0.80;;;0.60;;
46334;SDS011;32051;48.882;9.210;2023-11-21T10:15:59;0.65;;;0.65;;
46334;SDS011;32051;48.882;9.210;2023-11-21T10:18:30;0.30;;;0.30;;
46334;SDS011;32051;48.882;9.210;2023-11-21T10:20:59;1.25;;;0.45;;
46334;SDS011;32051;48.882;9.210;2023-11-21T10:23:26;0.30;;;0.30;;
46334;SDS011;32051;48.882;9.210;2023-11-21T10:25:52;0.30;;;0.30;;
46334;SDS011;32051;48.882;9.210;2023-11-21T10:28:20;0.88;;;0.70;;
46334;SDS011;32051;48.882;9.210;2023-11-21T10:30:46;0.73;;;0.55;;
46334;SDS011;32051;48.882;9.210;2023-11-21T10:33:12;0.47;;;0.47;;
46334;SDS011;32051;48.882;9.210;2023-11-21T10:35:48;0.30;;;0.30;;
46334;SDS011;32051;48.882;9.210;2023-11-21T10:38:19;0.38;;;0.38;;
46334;SDS011;32051;48.882;9.210;2023-11-21T10:40:51;0.50;;;0.20;;
46334;SDS011;32051;48.882;9.210;2023-11-21T10:43:19;2.10;;;0.43;;
46334;SDS011;32051;48.882;9.210;2023-11-21T10:45:46;0.57;;;0.57;;
46334;SDS011;32051;48.882;9.210;2023-11-21T10:48:15;0.82;;;0.82;;
46334;SDS011;32051;48.882;9.210;2023-11-21T10:50:42;2.25;;;0.90;;
46334;SDS011;32051;48.882;9.210;2023-11-21T10:53:08;1.23;;;0.85;;
46334;SDS011;32051;48.882;9.210;2023-11-21T10:55:34;4.45;;;1.77;;
46334;SDS011;32051;48.882;9.210;2023-11-21T10:58:01;1.88;;;0.88;;
46334;SDS011;32051;48.882;9.210;2023-11-21T11:00:28;0.75;;;0.70;;
46334;SDS011;32051;48.882;9.210;2023-11-21T11:02:55;0.88;;;0.85;;
46334;SDS011;32051;48.882;9.210;2023-11-21T11:05:25;2.20;;;0.80;;
46334;SDS011;32051;48.882;9.210;2023-11-21T11:07:59;3.17;;;0.63;;
46334;SDS011;32051;48.882;9.210;2023-11-21T11:10:27;2.28;;;0.73;;
46334;SDS011;32051;48.882;9.210;2023-11-21T11:12:54;1.83;;;0.68;;
46334;SDS011;32051;48.882;9.210;2023-11-21T11:15:21;0.75;;;0.60;;
46334;SDS011;32051;48.882;9.210;2023-11-21T11:17:47;0.68;;;0.60;;
46334;SDS011;32051;48.882;9.210;2023-11-21T11:20:14;1.45;;;0.82;;
46334;SDS011;32051;48.882;9.210;2023-11-21T11:25:25;0.60;;;0.60;;
46334;SDS011;32051;48.882;9.210;2023-11-21T11:28:26;1.00;;;0.90;;
46334;SDS011;32051;48.882;9.210;2023-11-21T11:38:46;1.17;;;0.93;;
46334;SDS011;32051;48.882;9.210;2023-11-21T11:41:24;2.15;;;1.38;;
46334;SDS011;32051;48.882;9.210;2023-11-21T11:43:50;0.90;;;0.90;;
46334;SDS011;32051;48.882;9.210;2023-11-21T11:46:16;1.02;;;0.63;;
46334;SDS011;32051;48.882;9.210;2023-11-21T11:48:42;5.55;;;0.98;;
46334;SDS011;32051;48.882;9.210;2023-11-21T11:51:11;1.38;;;1.25;;
46334;SDS011;32051;48.882;9.210;2023-11-21T11:53:40;2.80;;;0.95;;
46334;SDS011;32051;48.882;9.210;2023-11-21T11:58:42;0.90;;;0.90;;
46334;SDS011;32051;48.882;9.210;2023-11-21T12:01:08;1.20;;;1.20;;
46334;SDS011;32051;48.882;9.210;2023-11-21T12:03:34;1.27;;;1.23;;
46334;SDS011;32051;48.882;9.210;2023-11-21T12:06:01;1.73;;;1.20;;
46334;SDS011;32051;48.882;9.210;2023-11-21T12:08:28;1.50;;;1.50;;
46334;SDS011;32051;48.882;9.210;2023-11-21T12:10:58;2.08;;;1.20;;
46334;SDS011;32051;48.882;9.210;2023-11-21T12:13:24;1.13;;;1.10;;
46334;SDS011;32051;48.882;9.210;2023-11-21T12:15:50;1.20;;;1.20;;
46334;SDS011;32051;48.882;9.210;2023-11-21T12:18:16;1.10;;;1.00;;
46334;SDS011;32051;48.882;9.210;2023-11-21T12:20:42;1.95;;;1.17;;
46334;SDS011;32051;48.882;9.210;2023-11-21T12:23:12;1.08;;;1.08;;
46334;SDS011;32051;48.882;9.210;2023-11-21T12:25:40;4.45;;;0.73;;
46334;SDS011;32051;48.882;9.210;2023-11-21T12:28:07;1.42;;;0.90;;
46334;SDS011;32051;48.882;9.210;2023-11-21T12:30:34;2.80;;;0.77;;
46334;SDS011;32051;48.882;9.210;2023-11-21T12:33:01;1.00;;;1.00;;
46334;SDS011;32051;48.882;9.210;2023-11-21T12:35:34;0.82;;;0.82;;
46334;SDS011;32051;48.882;9.210;2023-11-21T12:38:01;1.15;;;1.05;;
46334;SDS011;32051;48.882;9.210;2023-11-21T12:40:30;1.00;;;0.90;;
46334;SDS011;32051;48.882;9.210;2023-11-21T12:42:56;1.10;;;1.00;;
46334;SDS011;32051;48.882;9.210;2023-11-21T12:45:27;1.00;;;0.95;;
46334;SDS011;32051;48.882;9.210;2023-11-21T12:47:56;0.82;;;0.82;;
46334;SDS011;32051;48.882;9.210;2023-11-21T12:50:25;2.65;;;1.85;;
46334;SDS011;32051;48.882;9.210;2023-11-21T12:53:00;1.50;;;1.40;;
46334;SDS011;32051;48.882;9.210;2023-11-21T12:55:29;1.27;;;1.05;;
46334;SDS011;32051;48.882;9.210;2023-11-21T12:57:55;2.47;;;1.25;;
46334;SDS011;32051;48.882;9.210;2023-11-21T13:00:30;2.58;;;1.65;;
46334;SDS011;32051;48.882;9.210;2023-11-21T13:02:58;1.67;;;1.58;;
46334;SDS011;32051;48.882;9.210;2023-11-21T13:05:25;1.83;;;1.73;;
46334;SDS011;32051;48.882;9.210;2023-11-21T13:07:51;1.38;;;1.27;;
46334;SDS011;32051;48.882;9.210;2023-11-21T13:10:19;4.40;;;1.50;;
46334;SDS011;32051;48.882;9.210;2023-11-21T13:12:50;1.30;;;1.20;;
46334;SDS011;32051;48.882;9.210;2023-11-21T13:15:17;1.98;;;1.52;;
46334;SDS011;32051;48.882;9.210;2023-11-21T13:17:46;2.28;;;1.42;;
46334;SDS011;32051;48.882;9.210;2023-11-21T13:20:12;2.15;;;1.95;;
46334;SDS011;32051;48.882;9.210;2023-11-21T13:25:19;2.03;;;1.92;;
46334;SDS011;32051;48.882;9.210;2023-11-21T13:27:45;2.03;;;1.83;;
46334;SDS011;32051;48.882;9.210;2023-11-21T13:30:14;2.83;;;2.10;;
46334;SDS011;32051;48.882;9.210;2023-11-21T13:32:42;1.75;;;1.60;;
46334;SDS011;32051;48.882;9.210;2023-11-21T13:35:09;1.92;;;1.63;;
46334;SDS011;32051;48.882;9.210;2023-11-21T13:37:48;1.70;;;1.60;;
46334;SDS011;32051;48.882;9.210;2023-11-21T13:40:18;3.60;;;1.77;;
46334;SDS011;32051;48.882;9.210;2023-11-21T13:42:48;3.33;;;1.35;;
46334;SDS011;32051;48.882;9.210;2023-11-21T13:45:14;6.60;;;2.10;;
46334;SDS011;32051;48.882;9.210;2023-11-21T13:47:41;1.55;;;1.45;;
46334;SDS011;32051;48.882;9.210;2023-11-21T13:50:08;1.50;;;1.40;;
46334;SDS011;32051;48.882;9.210;2023-11-21T13:52:42;2.85;;;1.40;;
46334;SDS011;32051;48.882;9.210;2023-11-21T13:55:10;3.65;;;1.20;;
46334;SDS011;32051;48.882;9.210;2023-11-21T13:57:41;1.00;;;0.90;;
46334;SDS011;32051;48.882;9.210;2023-11-21T14:00:10;0.80;;;0.80;;
46334;SDS011;32051;48.882;9.210;2023-11-21T14:02:56;0.90;;;0.88;;
46334;SDS011;32051;48.882;9.210;2023-11-21T14:05:28;8.23;;;1.90;;
46334;SDS011;32051;48.882;9.210;2023-11-21T14:07:56;2.03;;;1.30;;
46334;SDS011;32051;48.882;9.210;2023-11-21T14:10:31;0.55;;;0.55;;
46334;SDS011;32051;48.882;9.210;2023-11-21T14:13:05;3.78;;;1.10;;
46334;SDS011;32051;48.882;9.210;2023-11-21T14:15:31;2.08;;;0.77;;
46334;SDS011;32051;48.882;9.210;2023-11-21T14:18:06;0.75;;;0.75;;
46334;SDS011;32051;48.882;9.210;2023-11-21T14:20:35;1.10;;;0.93;;
46334;SDS011;32051;48.882;9.210;2023-11-21T14:23:05;0.82;;;0.82;;
46334;SDS011;32051;48.882;9.210;2023-11-21T14:25:34;1.15;;;0.98;;
46334;SDS011;32051;48.882;9.210;2023-11-21T14:28:05;1.35;;;0.95;;
46334;SDS011;32051;48.882;9.210;2023-11-21T14:30:31;1.00;;;1.00;;
46334;SDS011;32051;48.882;9.210;2023-11-21T14:33:00;0.98;;;0.98;;
46334;SDS011;32051;48.882;9.210;2023-11-21T14:35:27;1.10;;;1.10;;
46334;SDS011;32051;48.882;9.210;2023-11-21T14:37:55;1.35;;;1.33;;
46334;SDS011;32051;48.882;9.210;2023-11-21T14:40:23;1.00;;;1.00;;
46334;SDS011;32051;48.882;9.210;2023-11-21T14:42:50;1.00;;;1.00;;
46334;SDS011;32051;48.882;9.210;2023-11-21T14:45:20;1.15;;;1.15;;
46334;SDS011;32051;48.882;9.210;2023-11-21T14:47:48;1.85;;;1.23;;
46334;SDS011;32051;48.882;9.210;2023-11-21T14:50:25;1.15;;;1.08;;
46334;SDS011;32051;48.882;9.210;2023-11-21T14:53:23;2.88;;;1.20;;
46334;SDS011;32051;48.882;9.210;2023-11-21T14:56:09;1.55;;;1.45;;
46334;SDS011;32051;48.882;9.210;2023-11-21T14:58:35;2.08;;;1.50;;
46334;SDS011;32051;48.882;9.210;2023-11-21T15:01:03;1.25;;;1.20;;
46334;SDS011;32051;48.882;9.210;2023-11-21T15:03:29;2.13;;;1.45;;
46334;SDS011;32051;48.882;9.210;2023-11-21T15:05:56;1.63;;;1.52;;